createdAt,value
2022-08-07T00:02:56.143Z,66.90
2022-08-07T00:08:14.763Z,67.40
2022-08-07T00:13:28.969Z,67.20
2022-08-07T00:18:41.837Z,67.70
2022-08-07T00:23:49.065Z,68.10
2022-08-07T00:28:59.894Z,68.50
2022-08-07T00:34:09.665Z,68.70
2022-08-07T00:39:25.068Z,68.70
2022-08-07T00:44:44.224Z,68.90
2022-08-07T00:50:20.270Z,69.90
2022-08-07T00:55:25.318Z,69.50
2022-08-07T01:00:56.333Z,69.60
2022-08-07T01:06:11.254Z,70.10
2022-08-07T01:12:24.069Z,70.00
2022-08-07T01:17:04.112Z,69.90
2022-08-07T01:22:22.568Z,70.20
2022-08-07T01:27:50.890Z,70.80
2022-08-07T01:33:07.030Z,70.40
2022-08-07T01:38:25.199Z,70.50
2022-08-07T01:43:47.805Z,70.40
2022-08-07T01:48:57.142Z,70.70
2022-08-07T01:54:32.958Z,71.00
2022-08-07T01:59:48.400Z,71.80
2022-08-07T02:05:08.660Z,72.90
2022-08-07T02:10:42.244Z,73.40
2022-08-07T02:16:00.684Z,73.80
2022-08-07T02:21:13.872Z,73.90
2022-08-07T02:27:17.946Z,74.80
2022-08-07T02:32:18.518Z,74.80
2022-08-07T02:43:02.060Z,75.40
2022-08-07T02:48:15.717Z,76.00
2022-08-07T02:53:22.101Z,76.70
2022-08-07T02:58:55.352Z,77.10
2022-08-07T03:04:17.259Z,77.60
2022-08-07T03:09:43.432Z,77.70
2022-08-07T03:15:09.586Z,78.70
2022-08-07T03:20:22.612Z,79.30
2022-08-07T03:25:40.406Z,80.50
2022-08-07T03:31:11.760Z,81.10
2022-08-07T03:36:42.717Z,82.60
2022-08-07T03:41:53.691Z,83.80
2022-08-07T03:47:10.863Z,85.30
2022-08-07T03:52:29.920Z,87.00
2022-08-07T03:58:33.841Z,87.60
2022-08-07T04:03:22.659Z,88.10
2022-08-07T04:08:45.072Z,89.10
2022-08-07T04:14:38.509Z,90.20
2022-08-07T04:19:54.396Z,91.20
2022-08-07T04:25:12.588Z,91.40
2022-08-07T04:30:43.413Z,92.10
2022-08-07T04:35:54.022Z,92.10
2022-08-07T04:41:09.992Z,91.60
2022-08-07T04:52:11.459Z,91.60
2022-08-07T05:04:00.387Z,90.70
2022-08-07T05:09:08.569Z,90.30
2022-08-07T05:14:53.823Z,89.70
2022-08-07T05:19:50.080Z,87.70
2022-08-07T05:24:55.403Z,88.10
2022-08-07T05:29:57.615Z,87.80
2022-08-07T05:35:11.933Z,88.30
2022-08-07T05:40:24.125Z,86.50
2022-08-07T05:45:47.651Z,86.30
2022-08-07T05:50:50.973Z,85.10
2022-08-07T05:56:03.650Z,84.10
2022-08-07T06:01:14.838Z,82.80
2022-08-07T06:06:20.882Z,81.60
2022-08-07T06:11:28.653Z,81.50
2022-08-07T06:16:33.296Z,79.70
2022-08-07T06:22:14.680Z,76.50
2022-08-07T06:27:08.186Z,77.90
2022-08-07T06:32:13.255Z,75.20
2022-08-07T06:37:21.439Z,74.10
2022-08-07T06:42:34.950Z,72.90
2022-08-07T06:47:38.749Z,74.00
2022-08-07T06:53:00.709Z,70.20
2022-08-07T06:58:10.924Z,69.60
2022-08-07T07:03:14.518Z,68.90
2022-08-07T07:08:25.732Z,70.10
2022-08-07T07:13:56.054Z,68.60
2022-08-07T07:18:59.564Z,68.50
2022-08-07T07:24:06.410Z,66.90
2022-08-07T07:29:56.781Z,68.30
2022-08-07T07:34:43.853Z,64.50
2022-08-07T07:39:54.222Z,65.00
2022-08-07T07:45:01.299Z,63.20
2022-08-07T07:50:34.082Z,62.40
2022-08-07T07:55:37.544Z,62.40
2022-08-07T08:00:53.608Z,62.50
2022-08-07T08:05:56.487Z,59.10
2022-08-07T08:11:00.551Z,60.00
2022-08-07T08:16:06.180Z,58.50
2022-08-07T08:21:17.602Z,57.20
2022-08-07T08:26:22.397Z,58.60
2022-08-07T08:32:16.843Z,56.60
2022-08-07T08:37:09.851Z,57.60
2022-08-07T08:42:36.890Z,56.60
2022-08-07T08:47:57.534Z,55.90
2022-08-07T08:53:16.905Z,56.70
2022-08-07T08:58:29.971Z,54.80
2022-08-07T09:03:49.907Z,55.80
2022-08-07T09:09:03.098Z,56.30
2022-08-07T09:14:17.880Z,55.40
2022-08-07T09:19:52.985Z,55.20
2022-08-07T09:25:11.909Z,56.80
2022-08-07T09:30:20.662Z,56.70
2022-08-07T09:36:05.013Z,55.40
2022-08-07T09:41:09.224Z,56.00
2022-08-07T09:47:51.623Z,55.00
2022-08-07T09:52:09.831Z,56.30
2022-08-07T09:57:46.414Z,54.90
2022-08-07T10:04:06.192Z,53.80
2022-08-07T10:09:23.777Z,53.00
2022-08-07T10:15:18.776Z,54.10
2022-08-07T10:20:32.004Z,52.70
2022-08-07T10:25:55.061Z,50.30
2022-08-07T10:47:53.186Z,46.60
2022-08-07T10:52:59.869Z,46.70
2022-08-07T10:58:31.841Z,47.40
2022-08-07T11:03:54.901Z,47.40
2022-08-07T11:09:10.987Z,45.80
2022-08-07T11:14:44.915Z,48.30
2022-08-07T11:19:50.523Z,44.90
2022-08-07T11:24:59.749Z,45.50
2022-08-07T11:30:18.380Z,42.60
2022-08-07T11:35:33.940Z,44.20
2022-08-07T11:41:02.019Z,43.20
2022-08-07T11:52:05.717Z,43.40
2022-08-07T12:03:45.525Z,43.50
2022-08-07T12:14:56.129Z,42.30
2022-08-07T12:20:19.979Z,41.00
2022-08-07T12:26:06.105Z,42.70
2022-08-07T12:31:09.288Z,41.20
2022-08-07T12:36:15.306Z,41.00
2022-08-07T12:41:18.668Z,43.00
2022-08-07T12:46:34.500Z,41.00
2022-08-07T12:51:51.029Z,43.10
2022-08-07T12:57:09.797Z,40.80
2022-08-07T13:02:57.200Z,42.60
2022-08-07T13:08:22.097Z,41.90
2022-08-07T13:13:48.559Z,40.50
2022-08-07T13:18:59.023Z,41.90
2022-08-07T13:24:08.218Z,40.20
2022-08-07T13:29:19.549Z,39.80
2022-08-07T13:34:32.730Z,39.00
2022-08-07T13:46:28.867Z,38.60
2022-08-07T13:52:23.034Z,39.10
2022-08-07T14:26:28.428Z,39.30
2022-08-07T14:36:56.151Z,38.00
2022-08-07T14:42:18.699Z,37.90
2022-08-07T14:52:47.583Z,38.40
2022-08-07T15:03:22.107Z,38.50
2022-08-07T15:08:49.949Z,38.30
2022-08-07T15:14:01.003Z,38.20
2022-08-07T15:20:31.560Z,38.10
2022-08-07T15:25:13.546Z,38.90
2022-08-07T15:30:18.703Z,38.80
2022-08-07T15:36:00.563Z,38.40
2022-08-07T15:41:00.281Z,37.90
2022-08-07T15:46:31.123Z,39.10
2022-08-07T15:57:00.682Z,39.00
2022-08-07T16:02:05.000Z,38.50
2022-08-07T16:08:31.704Z,38.70
2022-08-07T16:12:41.161Z,39.70
2022-08-07T16:18:49.544Z,38.80
2022-08-07T16:23:58.560Z,39.60
2022-08-07T16:30:05.625Z,38.90
2022-08-07T16:34:45.526Z,38.80
2022-08-07T16:40:51.172Z,39.90
2022-08-07T16:52:29.780Z,40.50
2022-08-07T16:58:02.185Z,40.90
2022-08-07T17:03:17.220Z,41.10
2022-08-07T17:09:08.815Z,40.50
2022-08-07T17:14:19.146Z,40.20
2022-08-07T17:20:01.604Z,41.00
2022-08-07T17:25:04.295Z,40.60
2022-08-07T17:30:18.420Z,40.80
2022-08-07T17:35:49.703Z,40.60
2022-08-07T17:42:02.452Z,41.00
2022-08-07T17:46:34.566Z,41.60
2022-08-07T17:52:00.895Z,41.30
2022-08-07T17:57:18.768Z,41.90
2022-08-07T18:17:05.155Z,44.60
2022-08-07T18:22:17.158Z,43.90
2022-08-07T18:27:58.332Z,44.00
2022-08-07T18:33:28.886Z,44.30
2022-08-07T18:38:57.910Z,44.90
2022-08-07T18:44:10.193Z,45.10
2022-08-07T18:50:31.818Z,45.30
2022-08-07T18:54:53.658Z,45.20
2022-08-07T19:00:34.487Z,45.70
2022-08-07T19:06:02.202Z,52.00
2022-08-07T19:11:00.328Z,53.00
2022-08-07T19:17:01.014Z,53.40
2022-08-07T19:21:44.960Z,53.30
2022-08-07T19:28:58.488Z,55.20
2022-08-07T19:32:26.048Z,55.20
2022-08-07T19:37:57.210Z,55.00
2022-08-07T19:43:00.950Z,55.50
2022-08-07T19:48:05.957Z,55.20
2022-08-07T19:54:31.491Z,55.80
2022-08-07T19:58:52.926Z,55.50
2022-08-07T20:03:57.207Z,55.80
2022-08-07T20:09:00.936Z,56.90
2022-08-07T20:14:03.038Z,57.00
2022-08-07T20:19:11.280Z,57.60
2022-08-07T20:24:19.189Z,57.90
2022-08-07T20:29:48.672Z,57.50
2022-08-07T20:34:51.190Z,58.10
2022-08-07T20:40:02.716Z,58.00
2022-08-07T20:45:33.603Z,58.80
2022-08-07T20:50:30.936Z,59.00
2022-08-07T20:55:35.951Z,61.10
2022-08-07T21:00:45.380Z,59.70
2022-08-07T21:05:54.840Z,60.90
2022-08-07T21:11:02.758Z,60.70
2022-08-07T21:16:05.882Z,61.00
2022-08-07T21:21:09.087Z,61.60
2022-08-07T21:26:25.852Z,62.40
2022-08-07T21:32:42.452Z,62.70
2022-08-07T21:37:03.673Z,64.30
2022-08-07T21:42:37.553Z,64.10
2022-08-07T21:47:41.367Z,64.10
2022-08-07T21:53:00.137Z,65.00
2022-08-07T21:58:32.418Z,65.50
2022-08-07T22:03:40.730Z,66.70
2022-08-07T22:08:53.647Z,67.80
2022-08-07T22:13:59.897Z,67.50
2022-08-07T22:19:12.079Z,68.00
2022-08-07T22:24:17.437Z,68.90
2022-08-07T22:29:33.859Z,69.20
2022-08-07T22:34:53.182Z,71.40
2022-08-07T22:39:58.949Z,70.60
2022-08-07T22:45:11.109Z,70.20
2022-08-07T22:50:45.532Z,68.00
2022-08-07T22:55:57.773Z,67.50
2022-08-07T23:01:17.660Z,66.70
2022-08-07T23:06:36.018Z,66.00
2022-08-07T23:11:59.324Z,65.70
2022-08-07T23:17:29.391Z,65.60
2022-08-07T23:22:42.515Z,65.90
2022-08-07T23:28:21.190Z,65.10
2022-08-07T23:34:34.806Z,64.00
2022-08-07T23:39:41.436Z,63.20
2022-08-07T23:45:03.514Z,64.00
2022-08-07T23:50:26.374Z,63.90
2022-08-07T23:55:52.487Z,64.70
